createdAt,value
2022-11-24T00:00:32.362Z,99402.15
2022-11-24T00:04:55.926Z,99412.09
2022-11-24T00:09:00.115Z,99408.13
2022-11-24T00:13:04.149Z,99408.02
2022-11-24T00:17:07.762Z,99409.72
2022-11-24T00:21:11.977Z,99410.70
2022-11-24T00:25:15.669Z,99411.37
2022-11-24T00:29:19.261Z,99413.09
2022-11-24T00:33:22.908Z,99412.41
2022-11-24T00:37:27.579Z,99414.92
2022-11-24T00:41:32.521Z,99415.86
2022-11-24T00:45:36.185Z,99414.23
2022-11-24T00:49:39.914Z,99413.51
2022-11-24T00:53:44.395Z,99415.84
2022-11-24T00:57:48.054Z,99409.52
2022-11-24T01:01:51.678Z,99411.18
2022-11-24T01:05:55.426Z,99411.54
2022-11-24T01:09:59.004Z,99409.46
2022-11-24T01:14:02.573Z,99412.61
2022-11-24T01:18:06.526Z,99414.17
2022-11-24T01:22:10.225Z,99415.16
2022-11-24T01:26:17.067Z,99417.84
2022-11-24T01:30:22.600Z,99417.54
2022-11-24T01:34:26.252Z,99417.15
2022-11-24T01:38:29.947Z,99415.41
2022-11-24T01:42:53.552Z,99411.04
2022-11-24T01:47:29.298Z,99407.98
2022-11-24T01:51:37.500Z,99410.88
2022-11-24T01:55:41.849Z,99411.66
2022-11-24T01:59:49.018Z,99413.27
2022-11-24T02:03:53.762Z,99412.59
2022-11-24T02:08:00.903Z,99414.21
2022-11-24T02:12:05.560Z,99414.42
2022-11-24T02:16:12.178Z,99413.32
2022-11-24T02:20:17.996Z,99415.54
2022-11-24T02:24:41.718Z,99418.77
2022-11-24T02:28:46.778Z,99415.99
2022-11-24T02:32:51.625Z,99412.79
2022-11-24T02:36:55.304Z,99409.28
2022-11-24T02:41:02.855Z,99400.06
2022-11-24T02:45:09.659Z,99399.05
2022-11-24T02:49:13.373Z,99396.65
2022-11-24T02:53:16.971Z,99395.64
2022-11-24T02:57:23.818Z,99401.77
2022-11-24T03:01:27.420Z,99399.65
2022-11-24T03:05:31.139Z,99399.64
2022-11-24T03:09:34.790Z,99400.73
2022-11-24T03:13:38.390Z,99405.84
2022-11-24T03:17:42.201Z,99407.66
2022-11-24T03:21:47.515Z,99404.23
2022-11-24T03:25:51.126Z,99401.45
2022-11-24T03:29:54.708Z,99408.06
2022-11-24T03:33:58.291Z,99405.85
2022-11-24T03:38:01.948Z,99402.88
2022-11-24T03:42:05.927Z,99406.20
2022-11-24T03:46:09.548Z,99407.97
2022-11-24T03:50:13.184Z,99405.42
2022-11-24T03:54:16.812Z,99408.79
2022-11-24T03:58:20.896Z,99417.34
2022-11-24T04:02:24.536Z,99422.23
2022-11-24T04:06:28.231Z,99420.94
2022-11-24T04:10:37.442Z,99415.92
2022-11-24T04:14:41.541Z,99418.70
2022-11-24T04:18:45.164Z,99422.80
2022-11-24T04:22:50.613Z,99425.35
2022-11-24T04:26:54.925Z,99426.91
2022-11-24T04:31:03.176Z,99425.49
2022-11-24T04:35:07.168Z,99430.45
2022-11-24T04:39:19.669Z,99429.58
2022-11-24T04:43:30.639Z,99436.42
2022-11-24T04:47:34.663Z,99442.09
2022-11-24T04:51:42.092Z,99440.41
2022-11-24T04:55:45.666Z,99438.59
2022-11-24T04:59:50.563Z,99445.89
2022-11-24T05:03:55.447Z,99446.73
2022-11-24T05:08:00.517Z,99444.84
2022-11-24T05:12:04.239Z,99444.35
2022-11-24T05:16:08.071Z,99446.89
2022-11-24T05:20:11.760Z,99452.36
2022-11-24T05:24:15.305Z,99446.91
2022-11-24T05:28:19.286Z,99454.20
2022-11-24T05:32:22.936Z,99458.38
2022-11-24T05:36:45.184Z,99458.67
2022-11-24T05:40:48.959Z,99459.64
2022-11-24T05:44:53.594Z,99454.21
2022-11-24T05:48:57.126Z,99461.63
2022-11-24T05:53:09.104Z,99463.35
2022-11-24T05:57:13.397Z,99468.11
2022-11-24T06:01:16.799Z,99467.10
2022-11-24T06:05:20.171Z,99471.09
2022-11-24T06:09:23.547Z,99476.08
2022-11-24T06:13:26.948Z,99478.15
2022-11-24T06:17:30.547Z,99471.07
2022-11-24T06:21:33.919Z,99468.65
2022-11-24T06:25:37.193Z,99472.13
2022-11-24T06:29:40.557Z,99478.56
2022-11-24T06:33:43.915Z,99484.24
2022-11-24T06:37:47.311Z,99490.17
2022-11-24T06:41:51.127Z,99492.67
2022-11-24T06:45:54.563Z,99494.93
2022-11-24T06:49:58.292Z,99494.82
2022-11-24T06:54:02.023Z,99495.22
2022-11-24T06:58:05.791Z,99496.67
2022-11-24T07:02:11.074Z,99505.73
2022-11-24T07:06:15.574Z,99512.30
2022-11-24T07:10:19.234Z,99510.70
2022-11-24T07:14:22.604Z,99508.48
2022-11-24T07:18:26.139Z,99507.16
2022-11-24T07:22:29.546Z,99509.09
2022-11-24T07:26:37.546Z,99515.56
2022-11-24T07:30:40.964Z,99518.42
2022-11-24T07:34:44.299Z,99522.39
2022-11-24T07:38:48.049Z,99521.68
2022-11-24T07:42:51.360Z,99525.24
2022-11-24T07:46:54.825Z,99521.39
2022-11-24T07:51:02.616Z,99525.38
2022-11-24T07:55:06.729Z,99524.84
2022-11-24T07:59:10.144Z,99526.54
2022-11-24T08:03:13.557Z,99532.95
2022-11-24T08:07:17.112Z,99531.23
2022-11-24T08:11:20.656Z,99532.59
2022-11-24T08:15:24.189Z,99538.79
2022-11-24T08:19:27.675Z,99539.86
2022-11-24T08:23:32.171Z,99541.64
2022-11-24T08:27:36.061Z,99544.88
2022-11-24T08:31:39.772Z,99543.70
2022-11-24T08:35:43.144Z,99549.64
2022-11-24T08:39:46.623Z,99558.90
2022-11-24T08:43:50.385Z,99557.98
2022-11-24T08:47:55.008Z,99559.44
2022-11-24T08:51:58.538Z,99559.84
2022-11-24T08:56:02.891Z,99556.46
2022-11-24T09:00:07.173Z,99554.97
2022-11-24T09:04:13.511Z,99554.14
2022-11-24T09:08:16.963Z,99554.91
2022-11-24T09:12:20.421Z,99554.93
2022-11-24T09:16:29.348Z,99554.05
2022-11-24T09:20:32.891Z,99553.83
2022-11-24T09:24:36.344Z,99553.98
2022-11-24T09:28:41.159Z,99557.26
2022-11-24T09:32:44.562Z,99565.52
2022-11-24T09:36:47.884Z,99567.80
2022-11-24T09:40:52.615Z,99568.33
2022-11-24T09:45:15.513Z,99572.59
2022-11-24T09:49:30.726Z,99580.45
2022-11-24T09:53:39.648Z,99579.55
2022-11-24T09:57:44.343Z,99579.77
2022-11-24T10:01:50.182Z,99578.71
2022-11-24T10:05:54.185Z,99585.30
2022-11-24T10:10:04.862Z,99589.09
2022-11-24T10:14:17.527Z,99595.99
2022-11-24T10:18:42.600Z,99600.64
2022-11-24T10:22:58.490Z,99596.88
2022-11-24T10:27:02.486Z,99598.63
2022-11-24T10:31:30.430Z,99601.20
2022-11-24T10:35:50.926Z,99599.88
2022-11-24T10:45:01.722Z,99598.44
2022-11-24T10:49:30.926Z,99604.54
2022-11-24T10:53:36.338Z,99607.27
2022-11-24T10:57:44.112Z,99606.35
2022-11-24T11:01:48.520Z,99608.91
2022-11-24T11:06:27.541Z,99608.66
2022-11-24T11:10:32.426Z,99608.02
2022-11-24T11:14:38.676Z,99613.02
2022-11-24T11:18:49.136Z,99616.19
2022-11-24T11:22:54.718Z,99614.55
2022-11-24T11:27:05.616Z,99614.75
2022-11-24T11:31:22.048Z,99613.91
2022-11-24T11:35:33.855Z,99611.43
2022-11-24T11:39:46.921Z,99619.20
2022-11-24T11:44:03.169Z,99615.94
2022-11-24T11:48:23.689Z,99617.27
2022-11-24T11:52:33.448Z,99621.80
2022-11-24T11:56:45.461Z,99625.83
2022-11-24T12:01:00.610Z,99627.80
2022-11-24T12:05:28.128Z,99628.77
2022-11-24T12:09:59.668Z,99627.05
2022-11-24T12:14:21.531Z,99631.96
2022-11-24T12:18:55.775Z,99631.63
2022-11-24T12:22:57.231Z,99628.23
2022-11-24T12:27:23.461Z,99631.96
2022-11-24T12:31:32.897Z,99629.87
2022-11-24T12:35:49.408Z,99631.80
2022-11-24T12:40:15.418Z,99632.64
2022-11-24T12:44:56.709Z,99629.36
2022-11-24T12:49:22.076Z,99631.23
2022-11-24T12:53:30.587Z,99632.92
2022-11-24T12:57:40.254Z,99634.65
2022-11-24T13:01:53.889Z,99631.63
2022-11-24T13:06:17.586Z,99631.58
2022-11-24T13:10:40.479Z,99634.56
2022-11-24T13:14:49.130Z,99632.80
2022-11-24T13:19:08.925Z,99634.67
2022-11-24T13:23:25.681Z,99637.88
2022-11-24T13:27:40.421Z,99641.13
2022-11-24T13:31:43.969Z,99644.97
2022-11-24T13:36:02.876Z,99644.33
2022-11-24T13:40:12.114Z,99644.72
2022-11-24T13:44:15.535Z,99645.11
2022-11-24T13:48:22.757Z,99643.92
2022-11-24T13:52:41.347Z,99642.75
2022-11-24T13:56:44.823Z,99639.89
2022-11-24T14:01:07.396Z,99646.55
2022-11-24T14:05:15.444Z,99655.92
2022-11-24T14:09:41.650Z,99656.00
2022-11-24T14:13:49.177Z,99656.51
2022-11-24T14:17:53.169Z,99658.91
2022-11-24T14:21:57.194Z,99663.90
2022-11-24T14:26:02.214Z,99663.25
2022-11-24T14:30:20.988Z,99668.48
2022-11-24T14:34:28.495Z,99668.80
2022-11-24T14:38:31.821Z,99665.07
2022-11-24T14:42:35.204Z,99668.94
2022-11-24T14:46:38.909Z,99668.77
2022-11-24T14:50:42.604Z,99669.84
2022-11-24T14:54:52.305Z,99677.14
2022-11-24T14:58:57.917Z,99679.31
2022-11-24T15:03:01.298Z,99684.95
2022-11-24T15:07:13.872Z,99688.70
2022-11-24T15:11:18.518Z,99696.52
2022-11-24T15:15:31.444Z,99700.91
2022-11-24T15:19:37.041Z,99706.66
2022-11-24T15:23:43.258Z,99710.15
2022-11-24T15:27:52.874Z,99712.72
2022-11-24T15:31:58.912Z,99717.80
2022-11-24T15:36:05.169Z,99722.44
2022-11-24T15:40:10.712Z,99724.23
2022-11-24T15:44:14.118Z,99732.79
2022-11-24T15:48:20.282Z,99736.76
2022-11-24T15:52:27.893Z,99743.25
2022-11-24T15:56:35.271Z,99745.25
2022-11-24T16:00:43.914Z,99745.09
2022-11-24T16:04:52.552Z,99743.40
2022-11-24T16:09:02.099Z,99741.98
2022-11-24T16:13:09.585Z,99747.25
2022-11-24T16:17:16.147Z,99751.33
2022-11-24T16:21:24.276Z,99753.98
2022-11-24T16:25:32.863Z,99756.27
2022-11-24T16:29:38.499Z,99761.80
2022-11-24T16:33:44.885Z,99762.77
2022-11-24T16:37:51.064Z,99761.00
2022-11-24T16:41:54.878Z,99762.68
2022-11-24T16:46:07.372Z,99766.20
2022-11-24T16:50:13.499Z,99768.48
2022-11-24T16:54:24.821Z,99778.89
2022-11-24T16:58:28.638Z,99784.66
2022-11-24T17:02:34.150Z,99784.56
2022-11-24T17:06:38.491Z,99787.86
2022-11-24T17:10:44.796Z,99796.36
2022-11-24T17:15:09.319Z,99795.92
2022-11-24T17:19:15.428Z,99800.10
2022-11-24T17:23:21.014Z,99809.29
2022-11-24T17:27:27.024Z,99812.27
2022-11-24T17:31:38.340Z,99814.44
2022-11-24T17:35:42.887Z,99816.04
2022-11-24T17:44:08.356Z,99827.56
2022-11-24T17:48:12.613Z,99840.55
2022-11-24T17:52:18.208Z,99840.66
2022-11-24T17:56:25.640Z,99846.02
2022-11-24T18:00:37.006Z,99848.98
2022-11-24T18:04:40.315Z,99847.29
2022-11-24T18:13:41.152Z,99854.01
2022-11-24T18:17:43.400Z,99851.89
2022-11-24T18:21:49.544Z,99855.54
2022-11-24T18:25:56.289Z,99854.56
2022-11-24T18:30:00.272Z,99852.66
2022-11-24T18:34:09.035Z,99854.52
2022-11-24T18:38:14.826Z,99854.17
2022-11-24T18:42:18.214Z,99853.16
2022-11-24T18:46:25.542Z,99853.05
2022-11-24T18:50:30.387Z,99852.40
2022-11-24T18:54:37.222Z,99849.33
2022-11-24T18:58:45.505Z,99850.52
2022-11-24T19:02:52.749Z,99853.86
2022-11-24T19:06:57.187Z,99855.89
2022-11-24T19:11:02.330Z,99859.63
2022-11-24T19:15:10.210Z,99864.48
2022-11-24T19:19:21.074Z,99868.74
2022-11-24T19:23:24.952Z,99871.40
2022-11-24T19:27:31.371Z,99870.52
2022-11-24T19:31:38.530Z,99869.11
2022-11-24T19:35:44.812Z,99874.98
2022-11-24T19:39:49.438Z,99883.64
2022-11-24T19:43:56.737Z,99889.61
2022-11-24T19:48:03.007Z,99894.36
2022-11-24T19:52:06.370Z,99894.31
2022-11-24T19:56:16.747Z,99897.22
2022-11-24T20:00:21.510Z,99896.90
2022-11-24T20:04:25.594Z,99898.55
2022-11-24T20:08:30.845Z,99903.63
2022-11-24T20:12:36.206Z,99907.73
2022-11-24T20:16:51.662Z,99916.48
2022-11-24T20:21:03.877Z,99927.57
2022-11-24T20:25:10.016Z,99933.41
2022-11-24T20:29:19.002Z,99935.59
2022-11-24T20:33:22.380Z,99941.52
2022-11-24T20:41:50.476Z,99949.28
2022-11-24T20:45:54.346Z,99955.87
2022-11-24T20:49:58.020Z,99961.08
2022-11-24T20:54:05.224Z,99967.35
2022-11-24T20:58:09.683Z,99971.69
2022-11-24T21:02:13.810Z,99979.09
2022-11-24T21:06:17.700Z,99977.54
2022-11-24T21:10:21.777Z,99981.04
2022-11-24T21:14:25.752Z,99983.48
2022-11-24T21:18:29.871Z,99987.50
2022-11-24T21:22:33.981Z,99988.10
2022-11-24T21:26:40.728Z,99988.46
2022-11-24T21:30:44.242Z,99990.77
2022-11-24T21:34:51.188Z,99994.02
2022-11-24T21:39:00.218Z,99993.96
2022-11-24T21:43:06.096Z,99992.05
2022-11-24T21:47:12.764Z,99990.55
2022-11-24T21:51:22.758Z,99987.42
2022-11-24T21:55:27.021Z,99988.73
2022-11-24T21:59:30.576Z,99984.33
2022-11-24T22:03:34.145Z,99979.63
2022-11-24T22:07:38.090Z,99985.00
2022-11-24T22:11:42.255Z,99980.52
2022-11-24T22:15:46.348Z,99980.31
2022-11-24T22:19:49.846Z,99979.77
2022-11-24T22:23:53.841Z,99979.20
2022-11-24T22:27:58.573Z,99982.20
2022-11-24T22:32:03.315Z,99982.40
2022-11-24T22:36:07.178Z,99985.95
2022-11-24T22:40:11.279Z,99992.61
2022-11-24T22:44:14.644Z,99991.67
2022-11-24T22:48:18.080Z,99990.40
2022-11-24T22:52:22.404Z,99995.18
2022-11-24T22:56:28.145Z,99992.92
2022-11-24T23:00:31.872Z,99998.26
2022-11-24T23:04:35.552Z,100000.61
2022-11-24T23:08:42.718Z,100011.45
2022-11-24T23:12:46.986Z,100015.38
2022-11-24T23:16:50.639Z,100020.25
2022-11-24T23:20:54.870Z,100021.35
2022-11-24T23:24:58.357Z,100021.77
2022-11-24T23:29:02.275Z,100022.77
2022-11-24T23:33:06.324Z,100027.46
2022-11-24T23:37:11.041Z,100027.91
2022-11-24T23:41:18.613Z,100027.78
2022-11-24T23:45:21.972Z,100031.98
2022-11-24T23:49:25.318Z,100031.54
2022-11-24T23:53:31.962Z,100029.59
2022-11-24T23:57:35.622Z,100027.98
